createdAt,value
2019-06-08T00:04:14.201Z,98375.89
2019-06-08T00:09:20.835Z,98365.20
2019-06-08T00:14:27.155Z,98373.76
2019-06-08T00:19:32.911Z,98379.80
2019-06-08T00:24:38.419Z,98368.87
2019-06-08T00:29:46.065Z,98365.50
2019-06-08T00:34:53.236Z,98366.98
2019-06-08T00:39:58.681Z,98357.59
2019-06-08T00:45:05.553Z,98369.12
2019-06-08T00:50:11.331Z,98356.03
2019-06-08T00:55:17.391Z,98363.77
2019-06-08T01:00:24.510Z,98377.91
2019-06-08T01:05:31.969Z,98378.26
2019-06-08T01:10:37.584Z,98373.44
2019-06-08T01:15:42.889Z,98390.20
2019-06-08T01:20:49.262Z,98391.16
2019-06-08T01:25:54.670Z,98389.21
2019-06-08T01:30:59.917Z,98404.25
2019-06-08T01:36:05.357Z,98405.05
2019-06-08T01:41:10.865Z,98434.86
2019-06-08T01:46:16.430Z,98438.75
2019-06-08T01:51:22.532Z,98442.27
2019-06-08T01:56:29.200Z,98442.10
2019-06-08T02:01:34.466Z,98462.37
2019-06-08T02:06:39.770Z,98456.46
2019-06-08T02:11:45.076Z,98459.05
2019-06-08T02:16:50.641Z,98457.70
2019-06-08T02:21:56.067Z,98485.67
2019-06-08T02:27:01.362Z,98496.66
2019-06-08T02:32:06.854Z,98489.87
2019-06-08T02:37:12.314Z,98515.28
2019-06-08T02:42:17.637Z,98525.96
2019-06-08T02:47:22.877Z,98511.49
2019-06-08T02:52:29.948Z,98520.04
2019-06-08T02:57:39.615Z,98513.98
2019-06-08T03:02:46.270Z,98543.00
2019-06-08T03:07:53.668Z,98534.61
2019-06-08T03:13:01.472Z,98546.11
2019-06-08T03:18:06.922Z,98552.25
2019-06-08T03:23:13.199Z,98554.54
2019-06-08T03:28:18.459Z,98554.33
2019-06-08T03:33:24.018Z,98558.47
2019-06-08T03:38:29.707Z,98571.27
2019-06-08T03:43:35.762Z,98571.74
2019-06-08T03:48:45.621Z,98587.77
2019-06-08T03:53:50.364Z,98589.23
2019-06-08T03:58:55.576Z,98594.23
2019-06-08T04:04:00.852Z,98605.13
2019-06-08T04:09:07.249Z,98596.41
2019-06-08T04:14:12.594Z,98609.40
2019-06-08T04:19:17.963Z,98610.50
2019-06-08T04:24:23.263Z,98616.88
2019-06-08T04:29:28.561Z,98606.45
2019-06-08T04:34:33.822Z,98611.41
2019-06-08T04:39:40.258Z,98609.23
2019-06-08T04:44:47.011Z,98608.80
2019-06-08T04:49:52.531Z,98605.20
2019-06-08T04:54:58.145Z,98624.93
2019-06-08T05:00:11.516Z,98629.59
2019-06-08T05:05:10.762Z,98640.36
2019-06-08T05:10:16.249Z,98665.09
2019-06-08T05:15:21.621Z,98662.89
2019-06-08T05:20:38.189Z,98681.56
2019-06-08T05:25:34.015Z,98702.17
2019-06-08T05:30:39.396Z,98711.03
2019-06-08T05:35:45.493Z,98716.59
2019-06-08T05:40:50.798Z,98726.27
2019-06-08T05:45:56.515Z,98744.80
2019-06-08T05:51:04.184Z,98766.00
2019-06-08T05:56:09.442Z,98762.11
2019-06-08T06:01:15.242Z,98763.89
2019-06-08T06:06:20.512Z,98772.94
2019-06-08T06:13:20.697Z,98766.70
2019-06-08T06:18:26.121Z,98772.28
2019-06-08T06:23:31.519Z,98785.34
2019-06-08T06:28:36.850Z,98766.47
2019-06-08T06:33:43.716Z,98776.95
2019-06-08T06:38:50.174Z,98783.56
2019-06-08T06:43:55.530Z,98809.05
2019-06-08T06:49:01.229Z,98805.45
2019-06-08T06:54:06.989Z,98820.02
2019-06-08T06:59:13.842Z,98815.99
2019-06-08T07:04:19.292Z,98847.04
2019-06-08T07:09:24.609Z,98845.72
2019-06-08T07:14:29.968Z,98853.55
2019-06-08T07:19:35.221Z,98870.25
2019-06-08T07:24:40.768Z,98886.24
2019-06-08T07:29:47.076Z,98877.11
2019-06-08T07:34:53.196Z,98883.97
2019-06-08T07:40:00.189Z,98892.67
2019-06-08T07:45:05.941Z,98902.82
2019-06-08T07:50:11.600Z,98902.64
2019-06-08T07:55:19.211Z,98909.58
2019-06-08T08:00:24.931Z,98900.08
2019-06-08T08:05:30.358Z,98903.39
2019-06-08T08:10:35.704Z,98915.05
2019-06-08T08:15:41.180Z,98917.75
2019-06-08T08:20:46.908Z,98906.40
2019-06-08T08:25:53.100Z,98912.61
2019-06-08T08:31:00.372Z,98912.60
2019-06-08T08:36:07.282Z,98917.36
2019-06-08T08:41:12.567Z,98922.02
2019-06-08T08:46:17.871Z,98936.34
2019-06-08T08:51:23.171Z,98930.71
2019-06-08T08:56:28.864Z,98942.18
2019-06-08T09:01:34.395Z,98936.04
2019-06-08T09:06:39.903Z,98945.75
2019-06-08T09:11:48.113Z,98952.88
2019-06-08T09:16:53.742Z,98954.34
2019-06-08T09:22:02.746Z,98967.11
2019-06-08T09:27:07.994Z,98971.67
2019-06-08T09:32:14.635Z,98973.77
2019-06-08T09:37:20.354Z,98966.22
2019-06-08T09:42:28.457Z,98960.15
2019-06-08T09:47:34.071Z,98968.45
2019-06-08T09:52:41.389Z,98974.44
2019-06-08T09:57:48.566Z,98990.88
2019-06-08T10:02:55.109Z,98992.30
2019-06-08T10:08:04.037Z,98973.53
2019-06-08T10:13:09.855Z,98994.66
2019-06-08T10:18:17.640Z,98991.52
2019-06-08T10:23:30.655Z,98985.78
2019-06-08T10:28:30.518Z,99005.36
2019-06-08T10:33:37.749Z,98997.08
2019-06-08T10:38:43.113Z,99009.91
2019-06-08T10:43:48.554Z,99012.61
2019-06-08T10:48:53.803Z,99030.02
2019-06-08T10:54:00.059Z,99010.05
2019-06-08T10:59:09.840Z,99011.33
2019-06-08T11:04:12.769Z,99037.75
2019-06-08T11:09:19.049Z,99040.11
2019-06-08T11:14:24.891Z,99043.55
2019-06-08T11:19:30.212Z,99039.98
2019-06-08T11:24:35.590Z,99051.58
2019-06-08T11:29:40.938Z,99052.12
2019-06-08T11:34:48.826Z,99047.74
2019-06-08T11:39:54.121Z,99055.33
2019-06-08T11:45:00.337Z,99071.58
2019-06-08T11:50:07.261Z,99068.84
2019-06-08T11:55:13.322Z,99071.52
2019-06-08T12:00:30.995Z,99078.77
2019-06-08T12:05:36.378Z,99068.37
2019-06-08T12:10:41.679Z,99093.02
2019-06-08T12:15:48.824Z,99094.72
2019-06-08T12:20:54.381Z,99093.88
2019-06-08T12:25:59.631Z,99092.66
2019-06-08T12:31:05.373Z,99065.67
2019-06-08T12:36:13.685Z,99072.18
2019-06-08T12:41:17.673Z,99098.42
2019-06-08T12:46:22.931Z,99083.81
2019-06-08T12:51:28.647Z,99098.65
2019-06-08T12:56:34.145Z,99098.39
2019-06-08T13:01:39.584Z,99077.02
2019-06-08T13:06:44.966Z,99092.43
2019-06-08T13:11:51.169Z,99089.96
2019-06-08T13:16:56.932Z,99087.18
2019-06-08T13:22:02.325Z,99088.77
2019-06-08T13:27:10.391Z,99089.62
2019-06-08T13:32:16.521Z,99102.61
2019-06-08T13:37:22.259Z,99108.63
2019-06-08T13:42:28.063Z,99110.11
2019-06-08T13:47:33.513Z,99109.53
2019-06-08T13:52:39.081Z,99107.55
2019-06-08T13:57:44.512Z,99095.17
2019-06-08T14:02:49.749Z,99093.86
2019-06-08T14:07:55.218Z,99100.32
2019-06-08T14:13:00.985Z,99093.06
2019-06-08T14:18:08.776Z,99083.58
2019-06-08T14:23:13.960Z,99087.99
2019-06-08T14:28:21.186Z,99082.97
2019-06-08T14:33:31.524Z,99087.39
2019-06-08T14:38:38.570Z,99087.95
2019-06-08T14:43:41.352Z,99087.33
2019-06-08T14:48:47.073Z,99090.70
2019-06-08T14:53:52.517Z,99093.40
2019-06-08T14:59:00.362Z,99099.34
2019-06-08T15:04:05.057Z,99108.11
2019-06-08T15:09:10.304Z,99095.22
2019-06-08T15:14:15.758Z,99105.19
2019-06-08T15:19:22.227Z,99110.28
2019-06-08T15:24:29.804Z,99110.16
2019-06-08T15:29:35.201Z,99102.02
2019-06-08T15:34:41.122Z,99108.11
2019-06-08T15:39:51.148Z,99103.81
2019-06-08T15:44:54.031Z,99099.64
2019-06-08T15:49:59.748Z,99094.23
2019-06-08T15:55:05.376Z,99101.00
2019-06-08T16:00:11.090Z,99112.92
2019-06-08T16:05:16.602Z,99114.48
2019-06-08T16:10:21.974Z,99113.31
2019-06-08T16:15:27.369Z,99111.59
2019-06-08T16:20:33.691Z,99111.70
2019-06-08T16:25:39.255Z,99102.59
2019-06-08T16:30:45.408Z,99107.52
2019-06-08T16:35:50.709Z,99110.06
2019-06-08T16:40:56.149Z,99119.67
2019-06-08T16:46:02.339Z,99121.37
2019-06-08T16:51:07.701Z,99119.89
2019-06-08T16:56:13.067Z,99126.36
2019-06-08T17:01:18.420Z,99128.34
2019-06-08T17:06:23.864Z,99143.25
2019-06-08T17:11:29.605Z,99142.75
2019-06-08T17:16:36.261Z,99143.94
2019-06-08T17:21:41.700Z,99152.48
2019-06-08T17:26:47.275Z,99152.48
2019-06-08T17:31:52.700Z,99145.66
2019-06-08T17:36:58.411Z,99158.50
2019-06-08T17:42:04.573Z,99162.77
2019-06-08T17:47:10.188Z,99157.74
2019-06-08T17:52:15.411Z,99165.58
2019-06-08T17:57:20.678Z,99164.87
2019-06-08T18:02:29.115Z,99160.45
2019-06-08T18:07:33.758Z,99167.53
2019-06-08T18:12:42.674Z,99177.30
2019-06-08T18:17:48.213Z,99170.18
2019-06-08T18:22:54.858Z,99179.42
2019-06-08T18:28:09.220Z,99189.94
2019-06-08T18:33:07.460Z,99192.70
2019-06-08T18:38:12.949Z,99196.97
2019-06-08T18:43:18.369Z,99194.99
2019-06-08T18:48:23.780Z,99189.27
2019-06-08T18:53:29.364Z,99185.86
2019-06-08T18:58:35.655Z,99196.42
2019-06-08T19:03:44.761Z,99202.06
2019-06-08T19:08:50.849Z,99200.44
2019-06-08T19:13:58.033Z,99197.64
2019-06-08T19:19:04.653Z,99206.38
2019-06-08T19:24:10.067Z,99214.08
2019-06-08T19:29:19.104Z,99216.52
2019-06-08T19:34:22.406Z,99216.56
2019-06-08T19:39:28.637Z,99222.87
2019-06-08T19:44:34.323Z,99235.86
2019-06-08T19:49:41.409Z,99242.41
2019-06-08T19:54:53.726Z,99256.09
2019-06-08T19:59:57.555Z,99269.70
2019-06-08T20:05:02.619Z,99283.86
2019-06-08T20:10:08.550Z,99296.31
2019-06-08T20:15:14.766Z,99293.63
2019-06-08T20:20:20.561Z,99299.22
2019-06-08T20:25:27.811Z,99306.50
2019-06-08T20:30:33.294Z,99316.67
2019-06-08T20:35:39.095Z,99305.16
2019-06-08T20:40:44.475Z,99314.16
2019-06-08T20:45:51.774Z,99315.38
2019-06-08T20:50:57.272Z,99315.45
2019-06-08T20:56:02.673Z,99320.28
2019-06-08T21:01:08.260Z,99318.80
2019-06-08T21:06:17.146Z,99317.61
2019-06-08T21:11:23.822Z,99314.91
2019-06-08T21:16:30.166Z,99315.98
2019-06-08T21:21:37.653Z,99322.91
2019-06-08T21:26:43.939Z,99324.34
2019-06-08T21:31:52.277Z,99325.14
2019-06-08T21:37:00.629Z,99334.30
2019-06-08T21:42:03.831Z,99332.67
2019-06-08T21:47:09.432Z,99332.94
2019-06-08T21:52:15.171Z,99338.25
2019-06-08T21:57:20.843Z,99332.09
2019-06-08T22:02:26.081Z,99337.09
2019-06-08T22:07:31.366Z,99340.28
2019-06-08T22:12:40.255Z,99344.71
2019-06-08T22:17:43.925Z,99353.02
2019-06-08T22:22:49.245Z,99354.59
2019-06-08T22:27:55.978Z,99355.84
2019-06-08T22:33:02.405Z,99361.26
2019-06-08T22:38:08.637Z,99352.40
2019-06-08T22:43:15.556Z,99349.97
2019-06-08T22:48:22.281Z,99353.42
2019-06-08T22:53:28.802Z,99347.05
2019-06-08T22:58:34.273Z,99350.98
2019-06-08T23:03:41.194Z,99360.87
2019-06-08T23:08:48.080Z,99352.59
2019-06-08T23:13:54.315Z,99355.13
2019-06-08T23:19:01.745Z,99345.19
2019-06-08T23:24:08.536Z,99341.52
2019-06-08T23:29:14.656Z,99330.60
2019-06-08T23:34:23.248Z,99335.70
2019-06-08T23:39:28.573Z,99336.38
2019-06-08T23:44:34.012Z,99346.34
2019-06-08T23:49:39.355Z,99350.94
2019-06-08T23:54:44.817Z,99336.14
2019-06-08T23:59:50.398Z,99350.92
